Mayfield, Nebraska
Current Conditions -  °F | °C
As of 11:53 PM on Friday 19 Dec 2014 (Local Time) from KGRI Reporting Station
Moderate Fog Moderate Fog  
Wind Chill: 25°   Ceiling: 300
Heat Index: 32°   Visibility: 0.5mi
Dew Point: 31°   Wind: 8mph
Humidity: 96%   Direction: 180°S
Pressure: 30.05"   Gusts: NA
Location:  41.0079°N, 98.6613°W
Report Text: KGRI 200553Z AUTO 18007KT 1/2SM R35/2800V3500FT FG VV003 00/M01 A3005 RMK AO2 SLP198 T00001006 10011 20000 400171017 58002
Loading
Personal Weather Stations






























Interactive Weather Map New forecast layout! Learn more

10-Day Weather Forecast

Advertisements
Track Severe Weather on mobile